sensor_id;sensor_type;location;lat;lon;timestamp;temperature;humidity
9885;DHT22;4981;50.966;4.842;2024-01-06T00:00:19;6.70;1.00
9885;DHT22;4981;50.966;4.842;2024-01-06T00:02:48;6.70;1.00
9885;DHT22;4981;50.966;4.842;2024-01-06T00:05:15;6.70;1.00
9885;DHT22;4981;50.966;4.842;2024-01-06T00:07:42;6.60;1.00
9885;DHT22;4981;50.966;4.842;2024-01-06T00:10:09;6.60;1.00
9885;DHT22;4981;50.966;4.842;2024-01-06T00:12:37;6.70;1.00
9885;DHT22;4981;50.966;4.842;2024-01-06T00:15:05;6.60;1.00
9885;DHT22;4981;50.966;4.842;2024-01-06T00:17:32;6.60;1.00
9885;DHT22;4981;50.966;4.842;2024-01-06T00:19:59;6.60;1.00
9885;DHT22;4981;50.966;4.842;2024-01-06T00:22:28;6.60;1.00
9885;DHT22;4981;50.966;4.842;2024-01-06T00:24:55;6.60;1.00
9885;DHT22;4981;50.966;4.842;2024-01-06T00:27:22;6.60;1.00
9885;DHT22;4981;50.966;4.842;2024-01-06T00:29:51;6.60;1.00
9885;DHT22;4981;50.966;4.842;2024-01-06T00:32:17;6.70;1.00
9885;DHT22;4981;50.966;4.842;2024-01-06T00:34:45;6.60;1.00
9885;DHT22;4981;50.966;4.842;2024-01-06T00:37:13;6.60;1.00
9885;DHT22;4981;50.966;4.842;2024-01-06T00:39:40;6.50;1.00
9885;DHT22;4981;50.966;4.842;2024-01-06T00:42:07;6.60;1.00
9885;DHT22;4981;50.966;4.842;2024-01-06T00:44:35;6.40;1.00
9885;DHT22;4981;50.966;4.842;2024-01-06T00:47:04;6.50;1.00
9885;DHT22;4981;50.966;4.842;2024-01-06T00:49:31;5.50;1.00
9885;DHT22;4981;50.966;4.842;2024-01-06T00:51:58;6.50;1.00
9885;DHT22;4981;50.966;4.842;2024-01-06T00:54:25;6.50;1.00
9885;DHT22;4981;50.966;4.842;2024-01-06T00:56:52;6.70;1.00
9885;DHT22;4981;50.966;4.842;2024-01-06T00:59:19;6.50;1.00
9885;DHT22;4981;50.966;4.842;2024-01-06T01:01:46;6.50;1.00
9885;DHT22;4981;50.966;4.842;2024-01-06T01:04:14;6.50;1.00
9885;DHT22;4981;50.966;4.842;2024-01-06T01:06:41;6.50;1.00
9885;DHT22;4981;50.966;4.842;2024-01-06T01:09:08;6.50;1.00
9885;DHT22;4981;50.966;4.842;2024-01-06T01:11:36;6.50;1.00
9885;DHT22;4981;50.966;4.842;2024-01-06T01:14:03;6.50;1.00
9885;DHT22;4981;50.966;4.842;2024-01-06T01:16:30;6.50;1.00
9885;DHT22;4981;50.966;4.842;2024-01-06T01:18:57;6.50;1.00
9885;DHT22;4981;50.966;4.842;2024-01-06T01:21:26;6.50;1.00
9885;DHT22;4981;50.966;4.842;2024-01-06T01:23:53;6.50;1.00
9885;DHT22;4981;50.966;4.842;2024-01-06T01:26:20;6.50;1.00
9885;DHT22;4981;50.966;4.842;2024-01-06T01:28:47;6.50;1.00
9885;DHT22;4981;50.966;4.842;2024-01-06T01:31:14;6.60;1.00
9885;DHT22;4981;50.966;4.842;2024-01-06T01:33:41;6.50;1.00
9885;DHT22;4981;50.966;4.842;2024-01-06T01:36:08;6.50;1.00
9885;DHT22;4981;50.966;4.842;2024-01-06T01:38:38;5.90;1.00
9885;DHT22;4981;50.966;4.842;2024-01-06T01:41:05;6.50;1.00
9885;DHT22;4981;50.966;4.842;2024-01-06T01:43:32;6.50;1.00
9885;DHT22;4981;50.966;4.842;2024-01-06T01:45:59;6.50;1.00
9885;DHT22;4981;50.966;4.842;2024-01-06T01:48:26;6.50;1.00
9885;DHT22;4981;50.966;4.842;2024-01-06T01:50:53;6.50;1.00
9885;DHT22;4981;50.966;4.842;2024-01-06T01:53:21;6.50;1.00
9885;DHT22;4981;50.966;4.842;2024-01-06T01:55:51;6.60;1.00
9885;DHT22;4981;50.966;4.842;2024-01-06T01:58:18;6.50;1.00
9885;DHT22;4981;50.966;4.842;2024-01-06T02:00:45;6.50;1.00
9885;DHT22;4981;50.966;4.842;2024-01-06T02:03:13;6.50;1.00
9885;DHT22;4981;50.966;4.842;2024-01-06T02:05:41;6.50;1.00
9885;DHT22;4981;50.966;4.842;2024-01-06T02:08:08;6.50;1.00
9885;DHT22;4981;50.966;4.842;2024-01-06T02:10:35;6.50;1.00
9885;DHT22;4981;50.966;4.842;2024-01-06T02:13:09;6.50;1.00
9885;DHT22;4981;50.966;4.842;2024-01-06T02:15:36;6.50;1.00
9885;DHT22;4981;50.966;4.842;2024-01-06T02:18:04;6.50;1.00
9885;DHT22;4981;50.966;4.842;2024-01-06T02:20:31;6.50;1.00
9885;DHT22;4981;50.966;4.842;2024-01-06T02:23:00;6.50;1.00
9885;DHT22;4981;50.966;4.842;2024-01-06T02:25:27;6.60;1.00
9885;DHT22;4981;50.966;4.842;2024-01-06T02:27:54;6.50;1.00
9885;DHT22;4981;50.966;4.842;2024-01-06T02:30:21;6.50;1.00
9885;DHT22;4981;50.966;4.842;2024-01-06T02:32:48;6.50;1.00
9885;DHT22;4981;50.966;4.842;2024-01-06T02:35:16;6.50;1.00
9885;DHT22;4981;50.966;4.842;2024-01-06T02:37:43;6.50;1.00
9885;DHT22;4981;50.966;4.842;2024-01-06T02:40:13;6.50;1.00
9885;DHT22;4981;50.966;4.842;2024-01-06T02:42:40;6.50;1.00
9885;DHT22;4981;50.966;4.842;2024-01-06T02:45:08;6.50;1.00
9885;DHT22;4981;50.966;4.842;2024-01-06T02:47:36;6.50;1.00
9885;DHT22;4981;50.966;4.842;2024-01-06T02:50:03;6.50;1.00
9885;DHT22;4981;50.966;4.842;2024-01-06T02:52:30;6.50;1.00
9885;DHT22;4981;50.966;4.842;2024-01-06T02:54:57;6.50;1.00
9885;DHT22;4981;50.966;4.842;2024-01-06T02:57:26;6.50;1.00
9885;DHT22;4981;50.966;4.842;2024-01-06T02:59:53;6.80;1.00
9885;DHT22;4981;50.966;4.842;2024-01-06T03:02:20;6.60;1.00
9885;DHT22;4981;50.966;4.842;2024-01-06T03:04:47;6.40;1.00
9885;DHT22;4981;50.966;4.842;2024-01-06T03:07:14;6.20;1.00
9885;DHT22;4981;50.966;4.842;2024-01-06T03:09:41;6.20;1.00
9885;DHT22;4981;50.966;4.842;2024-01-06T03:12:08;6.10;1.00
9885;DHT22;4981;50.966;4.842;2024-01-06T03:14:37;6.10;1.00
9885;DHT22;4981;50.966;4.842;2024-01-06T03:17:04;6.00;1.00
9885;DHT22;4981;50.966;4.842;2024-01-06T03:19:31;6.00;1.00
9885;DHT22;4981;50.966;4.842;2024-01-06T03:21:58;5.90;1.00
9885;DHT22;4981;50.966;4.842;2024-01-06T03:24:26;5.90;1.00
9885;DHT22;4981;50.966;4.842;2024-01-06T03:26:53;5.90;1.00
9885;DHT22;4981;50.966;4.842;2024-01-06T03:29:20;5.90;1.00
9885;DHT22;4981;50.966;4.842;2024-01-06T03:31:48;5.90;1.00
9885;DHT22;4981;50.966;4.842;2024-01-06T03:34:15;5.80;1.00
9885;DHT22;4981;50.966;4.842;2024-01-06T03:36:42;5.80;1.00
9885;DHT22;4981;50.966;4.842;2024-01-06T03:39:09;5.80;1.00
9885;DHT22;4981;50.966;4.842;2024-01-06T03:41:38;5.80;1.00
9885;DHT22;4981;50.966;4.842;2024-01-06T03:44:05;5.80;1.00
9885;DHT22;4981;50.966;4.842;2024-01-06T03:46:34;5.80;1.00
9885;DHT22;4981;50.966;4.842;2024-01-06T03:49:03;5.80;1.00
9885;DHT22;4981;50.966;4.842;2024-01-06T03:51:30;5.80;1.00
9885;DHT22;4981;50.966;4.842;2024-01-06T03:53:59;5.80;1.00
9885;DHT22;4981;50.966;4.842;2024-01-06T03:56:26;5.70;1.00
9885;DHT22;4981;50.966;4.842;2024-01-06T03:58:53;5.70;1.00
9885;DHT22;4981;50.966;4.842;2024-01-06T04:01:20;5.80;1.00
9885;DHT22;4981;50.966;4.842;2024-01-06T04:03:47;5.80;1.00
9885;DHT22;4981;50.966;4.842;2024-01-06T04:06:15;5.70;1.00
9885;DHT22;4981;50.966;4.842;2024-01-06T04:08:42;5.70;1.00
9885;DHT22;4981;50.966;4.842;2024-01-06T04:11:09;5.80;1.00
9885;DHT22;4981;50.966;4.842;2024-01-06T04:13:36;5.70;1.00
9885;DHT22;4981;50.966;4.842;2024-01-06T04:16:04;5.70;1.00
9885;DHT22;4981;50.966;4.842;2024-01-06T04:18:31;5.60;1.00
9885;DHT22;4981;50.966;4.842;2024-01-06T04:20:58;5.70;1.00
9885;DHT22;4981;50.966;4.842;2024-01-06T04:23:26;5.70;1.00
9885;DHT22;4981;50.966;4.842;2024-01-06T04:25:53;5.70;1.00
9885;DHT22;4981;50.966;4.842;2024-01-06T04:28:20;5.70;1.00
9885;DHT22;4981;50.966;4.842;2024-01-06T04:30:47;5.70;1.00
9885;DHT22;4981;50.966;4.842;2024-01-06T04:33:14;5.70;1.00
9885;DHT22;4981;50.966;4.842;2024-01-06T04:35:41;5.70;1.00
9885;DHT22;4981;50.966;4.842;2024-01-06T04:38:08;5.70;1.00
9885;DHT22;4981;50.966;4.842;2024-01-06T04:40:37;5.60;1.00
9885;DHT22;4981;50.966;4.842;2024-01-06T04:43:04;5.70;1.00
9885;DHT22;4981;50.966;4.842;2024-01-06T04:45:31;5.60;1.00
9885;DHT22;4981;50.966;4.842;2024-01-06T04:47:58;5.60;1.00
9885;DHT22;4981;50.966;4.842;2024-01-06T04:50:25;5.60;1.00
9885;DHT22;4981;50.966;4.842;2024-01-06T04:52:52;5.60;1.00
9885;DHT22;4981;50.966;4.842;2024-01-06T04:55:19;5.50;1.00
9885;DHT22;4981;50.966;4.842;2024-01-06T04:57:48;5.50;1.00
9885;DHT22;4981;50.966;4.842;2024-01-06T05:00:16;5.50;1.00
9885;DHT22;4981;50.966;4.842;2024-01-06T05:02:43;5.40;1.00
9885;DHT22;4981;50.966;4.842;2024-01-06T05:05:10;5.40;1.00
9885;DHT22;4981;50.966;4.842;2024-01-06T05:07:37;5.40;1.00
9885;DHT22;4981;50.966;4.842;2024-01-06T05:10:05;5.40;1.00
9885;DHT22;4981;50.966;4.842;2024-01-06T05:12:32;5.40;1.00
9885;DHT22;4981;50.966;4.842;2024-01-06T05:15:01;5.40;1.00
9885;DHT22;4981;50.966;4.842;2024-01-06T05:17:28;5.50;1.00
9885;DHT22;4981;50.966;4.842;2024-01-06T05:19:55;5.30;1.00
9885;DHT22;4981;50.966;4.842;2024-01-06T05:22:22;5.60;1.00
9885;DHT22;4981;50.966;4.842;2024-01-06T05:24:49;6.40;1.00
9885;DHT22;4981;50.966;4.842;2024-01-06T05:27:18;6.00;1.00
9885;DHT22;4981;50.966;4.842;2024-01-06T05:29:45;5.40;1.00
9885;DHT22;4981;50.966;4.842;2024-01-06T05:32:16;5.30;1.00
9885;DHT22;4981;50.966;4.842;2024-01-06T05:34:43;5.30;1.00
9885;DHT22;4981;50.966;4.842;2024-01-06T05:37:11;5.20;1.00
9885;DHT22;4981;50.966;4.842;2024-01-06T05:39:38;5.20;1.00
9885;DHT22;4981;50.966;4.842;2024-01-06T05:42:05;5.10;1.00
9885;DHT22;4981;50.966;4.842;2024-01-06T05:44:35;5.10;1.00
9885;DHT22;4981;50.966;4.842;2024-01-06T05:47:03;5.10;1.00
9885;DHT22;4981;50.966;4.842;2024-01-06T05:49:31;5.10;1.00
9885;DHT22;4981;50.966;4.842;2024-01-06T05:51:58;5.00;1.00
9885;DHT22;4981;50.966;4.842;2024-01-06T05:54:25;5.10;1.00
9885;DHT22;4981;50.966;4.842;2024-01-06T05:56:52;5.10;1.00
9885;DHT22;4981;50.966;4.842;2024-01-06T05:59:19;5.10;1.00
9885;DHT22;4981;50.966;4.842;2024-01-06T06:01:46;5.00;1.00
9885;DHT22;4981;50.966;4.842;2024-01-06T06:04:13;5.00;1.00
9885;DHT22;4981;50.966;4.842;2024-01-06T06:06:41;5.00;1.00
9885;DHT22;4981;50.966;4.842;2024-01-06T06:09:08;5.00;1.00
9885;DHT22;4981;50.966;4.842;2024-01-06T06:11:35;5.00;1.00
9885;DHT22;4981;50.966;4.842;2024-01-06T06:14:02;5.00;1.00
9885;DHT22;4981;50.966;4.842;2024-01-06T06:16:30;5.00;1.00
9885;DHT22;4981;50.966;4.842;2024-01-06T06:18:57;5.00;1.00
9885;DHT22;4981;50.966;4.842;2024-01-06T06:21:24;5.00;1.00
9885;DHT22;4981;50.966;4.842;2024-01-06T06:23:52;5.00;1.00
9885;DHT22;4981;50.966;4.842;2024-01-06T06:26:19;4.90;1.00
9885;DHT22;4981;50.966;4.842;2024-01-06T06:28:46;5.30;1.00
9885;DHT22;4981;50.966;4.842;2024-01-06T06:31:13;4.90;1.00
9885;DHT22;4981;50.966;4.842;2024-01-06T06:33:40;5.00;1.00
9885;DHT22;4981;50.966;4.842;2024-01-06T06:36:08;4.50;1.00
9885;DHT22;4981;50.966;4.842;2024-01-06T06:38:34;4.90;1.00
9885;DHT22;4981;50.966;4.842;2024-01-06T06:41:03;4.80;1.00
9885;DHT22;4981;50.966;4.842;2024-01-06T06:43:30;4.90;1.00
9885;DHT22;4981;50.966;4.842;2024-01-06T06:46:00;4.90;1.00
9885;DHT22;4981;50.966;4.842;2024-01-06T06:48:28;4.90;1.00
9885;DHT22;4981;50.966;4.842;2024-01-06T06:50:54;4.00;1.00
9885;DHT22;4981;50.966;4.842;2024-01-06T06:53:21;4.90;1.00
9885;DHT22;4981;50.966;4.842;2024-01-06T06:55:48;5.00;1.00
9885;DHT22;4981;50.966;4.842;2024-01-06T06:58:17;4.90;1.00
9885;DHT22;4981;50.966;4.842;2024-01-06T07:00:44;5.00;1.00
9885;DHT22;4981;50.966;4.842;2024-01-06T07:03:11;4.90;1.00
9885;DHT22;4981;50.966;4.842;2024-01-06T07:05:39;5.00;1.00
9885;DHT22;4981;50.966;4.842;2024-01-06T07:08:06;4.80;1.00
9885;DHT22;4981;50.966;4.842;2024-01-06T07:10:33;4.70;1.00
9885;DHT22;4981;50.966;4.842;2024-01-06T07:13:00;4.60;1.00
9885;DHT22;4981;50.966;4.842;2024-01-06T07:15:28;4.70;1.00
9885;DHT22;4981;50.966;4.842;2024-01-06T07:17:55;4.70;1.00
9885;DHT22;4981;50.966;4.842;2024-01-06T07:20:22;4.70;1.00
9885;DHT22;4981;50.966;4.842;2024-01-06T07:22:49;4.60;1.00
9885;DHT22;4981;50.966;4.842;2024-01-06T07:25:16;4.60;1.00
9885;DHT22;4981;50.966;4.842;2024-01-06T07:27:43;4.60;1.00
9885;DHT22;4981;50.966;4.842;2024-01-06T07:30:11;4.60;1.00
9885;DHT22;4981;50.966;4.842;2024-01-06T07:32:39;4.60;1.00
9885;DHT22;4981;50.966;4.842;2024-01-06T07:35:08;4.60;1.00
9885;DHT22;4981;50.966;4.842;2024-01-06T07:37:35;4.70;1.00
9885;DHT22;4981;50.966;4.842;2024-01-06T07:40:02;4.60;1.00
9885;DHT22;4981;50.966;4.842;2024-01-06T07:42:29;4.70;1.00
9885;DHT22;4981;50.966;4.842;2024-01-06T07:44:56;4.60;1.00
9885;DHT22;4981;50.966;4.842;2024-01-06T07:47:23;4.70;1.00
9885;DHT22;4981;50.966;4.842;2024-01-06T07:49:51;4.60;1.00
9885;DHT22;4981;50.966;4.842;2024-01-06T07:52:20;4.70;1.00
9885;DHT22;4981;50.966;4.842;2024-01-06T07:54:47;4.60;1.00
9885;DHT22;4981;50.966;4.842;2024-01-06T07:57:14;4.50;1.00
9885;DHT22;4981;50.966;4.842;2024-01-06T07:59:41;4.50;1.00
9885;DHT22;4981;50.966;4.842;2024-01-06T08:02:08;4.50;1.00
9885;DHT22;4981;50.966;4.842;2024-01-06T08:04:35;4.50;1.00
9885;DHT22;4981;50.966;4.842;2024-01-06T08:07:04;4.60;1.00
9885;DHT22;4981;50.966;4.842;2024-01-06T08:09:31;4.50;1.00
9885;DHT22;4981;50.966;4.842;2024-01-06T08:12:16;4.50;1.00
9885;DHT22;4981;50.966;4.842;2024-01-06T08:14:43;4.60;1.00
9885;DHT22;4981;50.966;4.842;2024-01-06T08:17:11;4.60;1.00
9885;DHT22;4981;50.966;4.842;2024-01-06T08:19:38;4.70;1.00
9885;DHT22;4981;50.966;4.842;2024-01-06T08:22:06;4.60;1.00
9885;DHT22;4981;50.966;4.842;2024-01-06T08:24:33;4.60;1.00
9885;DHT22;4981;50.966;4.842;2024-01-06T08:27:00;4.60;1.00
9885;DHT22;4981;50.966;4.842;2024-01-06T08:29:27;4.50;1.00
9885;DHT22;4981;50.966;4.842;2024-01-06T08:31:54;4.70;1.00
9885;DHT22;4981;50.966;4.842;2024-01-06T08:34:21;4.60;1.00
9885;DHT22;4981;50.966;4.842;2024-01-06T08:36:48;4.70;1.00
9885;DHT22;4981;50.966;4.842;2024-01-06T08:39:17;4.60;1.00
9885;DHT22;4981;50.966;4.842;2024-01-06T08:41:44;4.60;1.00
9885;DHT22;4981;50.966;4.842;2024-01-06T08:44:12;4.60;1.00
9885;DHT22;4981;50.966;4.842;2024-01-06T08:46:42;4.60;1.00
9885;DHT22;4981;50.966;4.842;2024-01-06T08:49:09;4.60;1.00
9885;DHT22;4981;50.966;4.842;2024-01-06T08:51:36;4.60;1.00
9885;DHT22;4981;50.966;4.842;2024-01-06T08:54:03;4.60;1.00
9885;DHT22;4981;50.966;4.842;2024-01-06T08:56:32;4.60;1.00
9885;DHT22;4981;50.966;4.842;2024-01-06T08:59:00;4.60;1.00
9885;DHT22;4981;50.966;4.842;2024-01-06T09:01:27;4.50;1.00
9885;DHT22;4981;50.966;4.842;2024-01-06T09:03:53;4.50;1.00
9885;DHT22;4981;50.966;4.842;2024-01-06T09:06:20;4.60;1.00
9885;DHT22;4981;50.966;4.842;2024-01-06T09:08:47;4.60;1.00
9885;DHT22;4981;50.966;4.842;2024-01-06T09:11:15;4.50;1.00
9885;DHT22;4981;50.966;4.842;2024-01-06T09:13:43;4.60;1.00
9885;DHT22;4981;50.966;4.842;2024-01-06T09:16:10;4.60;1.00
9885;DHT22;4981;50.966;4.842;2024-01-06T09:18:37;4.60;1.00
9885;DHT22;4981;50.966;4.842;2024-01-06T09:21:04;4.60;1.00
9885;DHT22;4981;50.966;4.842;2024-01-06T09:23:32;4.60;1.00
9885;DHT22;4981;50.966;4.842;2024-01-06T09:25:59;4.70;1.00
9885;DHT22;4981;50.966;4.842;2024-01-06T09:28:26;4.70;1.00
9885;DHT22;4981;50.966;4.842;2024-01-06T09:30:55;4.70;1.00
9885;DHT22;4981;50.966;4.842;2024-01-06T09:33:22;4.70;1.00
9885;DHT22;4981;50.966;4.842;2024-01-06T09:35:49;4.60;1.00
9885;DHT22;4981;50.966;4.842;2024-01-06T09:38:16;4.50;1.00
9885;DHT22;4981;50.966;4.842;2024-01-06T09:40:44;4.50;1.00
9885;DHT22;4981;50.966;4.842;2024-01-06T09:43:11;4.50;1.00
9885;DHT22;4981;50.966;4.842;2024-01-06T09:45:38;4.50;1.00
9885;DHT22;4981;50.966;4.842;2024-01-06T09:48:10;4.40;1.00
9885;DHT22;4981;50.966;4.842;2024-01-06T09:50:40;4.80;1.00
9885;DHT22;4981;50.966;4.842;2024-01-06T09:53:09;4.50;1.00
9885;DHT22;4981;50.966;4.842;2024-01-06T09:55:38;4.50;1.00
9885;DHT22;4981;50.966;4.842;2024-01-06T09:58:05;4.40;1.00
9885;DHT22;4981;50.966;4.842;2024-01-06T10:00:32;4.50;1.00
9885;DHT22;4981;50.966;4.842;2024-01-06T10:02:59;4.40;1.00
9885;DHT22;4981;50.966;4.842;2024-01-06T10:05:27;4.40;1.00
9885;DHT22;4981;50.966;4.842;2024-01-06T10:07:54;4.40;1.00
9885;DHT22;4981;50.966;4.842;2024-01-06T10:10:22;4.50;1.00
9885;DHT22;4981;50.966;4.842;2024-01-06T10:12:53;4.60;1.00
9885;DHT22;4981;50.966;4.842;2024-01-06T10:15:21;4.50;1.00
9885;DHT22;4981;50.966;4.842;2024-01-06T10:17:48;4.50;1.00
9885;DHT22;4981;50.966;4.842;2024-01-06T10:20:15;4.50;1.00
9885;DHT22;4981;50.966;4.842;2024-01-06T10:22:45;4.50;1.00
9885;DHT22;4981;50.966;4.842;2024-01-06T10:25:12;4.40;1.00
9885;DHT22;4981;50.966;4.842;2024-01-06T10:27:41;4.40;1.00
9885;DHT22;4981;50.966;4.842;2024-01-06T10:30:09;4.40;1.00
9885;DHT22;4981;50.966;4.842;2024-01-06T10:32:39;4.50;1.00
9885;DHT22;4981;50.966;4.842;2024-01-06T10:35:06;4.50;1.00
9885;DHT22;4981;50.966;4.842;2024-01-06T10:37:34;4.50;1.00
9885;DHT22;4981;50.966;4.842;2024-01-06T10:40:09;4.50;1.00
9885;DHT22;4981;50.966;4.842;2024-01-06T10:42:36;4.60;1.00
9885;DHT22;4981;50.966;4.842;2024-01-06T10:45:07;4.70;1.00
9885;DHT22;4981;50.966;4.842;2024-01-06T10:47:35;4.70;1.00
9885;DHT22;4981;50.966;4.842;2024-01-06T10:50:01;4.70;1.00
9885;DHT22;4981;50.966;4.842;2024-01-06T10:52:29;4.70;1.00
9885;DHT22;4981;50.966;4.842;2024-01-06T10:54:56;4.70;1.00
9885;DHT22;4981;50.966;4.842;2024-01-06T10:57:25;4.70;1.00
9885;DHT22;4981;50.966;4.842;2024-01-06T10:59:53;4.60;1.00
9885;DHT22;4981;50.966;4.842;2024-01-06T11:02:22;5.30;1.00
9885;DHT22;4981;50.966;4.842;2024-01-06T11:04:51;4.70;1.00
9885;DHT22;4981;50.966;4.842;2024-01-06T11:07:19;4.90;1.00
9885;DHT22;4981;50.966;4.842;2024-01-06T11:09:52;4.60;1.00
9885;DHT22;4981;50.966;4.842;2024-01-06T11:12:20;4.70;1.00
9885;DHT22;4981;50.966;4.842;2024-01-06T11:14:49;4.80;1.00
9885;DHT22;4981;50.966;4.842;2024-01-06T11:17:48;4.80;1.00
9885;DHT22;4981;50.966;4.842;2024-01-06T11:20:18;4.70;1.00
9885;DHT22;4981;50.966;4.842;2024-01-06T11:22:45;4.70;1.00
9885;DHT22;4981;50.966;4.842;2024-01-06T11:25:14;4.70;1.00
9885;DHT22;4981;50.966;4.842;2024-01-06T11:27:43;4.70;1.00
9885;DHT22;4981;50.966;4.842;2024-01-06T11:30:21;4.70;1.00
9885;DHT22;4981;50.966;4.842;2024-01-06T11:32:49;4.70;1.00
9885;DHT22;4981;50.966;4.842;2024-01-06T11:35:19;4.80;1.00
9885;DHT22;4981;50.966;4.842;2024-01-06T11:37:55;4.80;1.00
9885;DHT22;4981;50.966;4.842;2024-01-06T11:40:25;4.70;1.00
9885;DHT22;4981;50.966;4.842;2024-01-06T11:43:00;4.80;1.00
9885;DHT22;4981;50.966;4.842;2024-01-06T11:45:29;4.80;1.00
9885;DHT22;4981;50.966;4.842;2024-01-06T11:52:57;4.70;1.00
9885;DHT22;4981;50.966;4.842;2024-01-06T11:55:25;4.70;1.00
9885;DHT22;4981;50.966;4.842;2024-01-06T12:00:32;5.10;1.00
9885;DHT22;4981;50.966;4.842;2024-01-06T12:03:01;4.70;1.00
9885;DHT22;4981;50.966;4.842;2024-01-06T12:05:29;4.70;1.00
9885;DHT22;4981;50.966;4.842;2024-01-06T12:07:58;4.70;1.00
9885;DHT22;4981;50.966;4.842;2024-01-06T12:10:27;4.70;1.00
9885;DHT22;4981;50.966;4.842;2024-01-06T12:12:58;4.80;1.00
9885;DHT22;4981;50.966;4.842;2024-01-06T12:15:26;4.80;1.00
9885;DHT22;4981;50.966;4.842;2024-01-06T12:17:55;4.80;1.00
9885;DHT22;4981;50.966;4.842;2024-01-06T12:20:22;4.70;1.00
9885;DHT22;4981;50.966;4.842;2024-01-06T12:22:50;6.00;1.00
9885;DHT22;4981;50.966;4.842;2024-01-06T12:25:17;5.30;1.00
9885;DHT22;4981;50.966;4.842;2024-01-06T12:27:45;4.80;1.00
9885;DHT22;4981;50.966;4.842;2024-01-06T12:30:13;4.70;1.00
9885;DHT22;4981;50.966;4.842;2024-01-06T12:32:44;4.60;1.00
9885;DHT22;4981;50.966;4.842;2024-01-06T12:35:15;4.60;1.00
9885;DHT22;4981;50.966;4.842;2024-01-06T12:37:42;4.50;1.00
9885;DHT22;4981;50.966;4.842;2024-01-06T12:40:12;4.60;1.00
9885;DHT22;4981;50.966;4.842;2024-01-06T12:42:41;4.80;1.00
9885;DHT22;4981;50.966;4.842;2024-01-06T12:45:09;4.60;1.00
9885;DHT22;4981;50.966;4.842;2024-01-06T12:47:36;4.60;1.00
9885;DHT22;4981;50.966;4.842;2024-01-06T12:50:04;4.60;1.00
9885;DHT22;4981;50.966;4.842;2024-01-06T12:52:33;4.50;1.00
9885;DHT22;4981;50.966;4.842;2024-01-06T12:55:00;4.50;1.00
9885;DHT22;4981;50.966;4.842;2024-01-06T12:57:28;4.50;1.00
9885;DHT22;4981;50.966;4.842;2024-01-06T12:59:55;4.50;1.00
9885;DHT22;4981;50.966;4.842;2024-01-06T13:02:22;4.50;1.00
9885;DHT22;4981;50.966;4.842;2024-01-06T13:04:49;4.50;1.00
9885;DHT22;4981;50.966;4.842;2024-01-06T13:07:16;4.50;1.00
9885;DHT22;4981;50.966;4.842;2024-01-06T13:09:45;4.50;1.00
9885;DHT22;4981;50.966;4.842;2024-01-06T13:12:12;4.40;1.00
9885;DHT22;4981;50.966;4.842;2024-01-06T13:14:39;4.40;1.00
9885;DHT22;4981;50.966;4.842;2024-01-06T13:17:06;4.40;1.00
9885;DHT22;4981;50.966;4.842;2024-01-06T13:19:34;4.40;1.00
9885;DHT22;4981;50.966;4.842;2024-01-06T13:22:02;5.10;1.00
9885;DHT22;4981;50.966;4.842;2024-01-06T13:24:28;4.50;1.00
9885;DHT22;4981;50.966;4.842;2024-01-06T13:26:57;4.40;1.00
9885;DHT22;4981;50.966;4.842;2024-01-06T13:29:26;4.40;1.00
9885;DHT22;4981;50.966;4.842;2024-01-06T13:31:54;4.40;1.00
9885;DHT22;4981;50.966;4.842;2024-01-06T13:34:22;4.30;1.00
9885;DHT22;4981;50.966;4.842;2024-01-06T13:36:49;4.40;1.00
9885;DHT22;4981;50.966;4.842;2024-01-06T13:39:16;4.30;1.00
9885;DHT22;4981;50.966;4.842;2024-01-06T13:41:46;4.40;1.00
9885;DHT22;4981;50.966;4.842;2024-01-06T13:44:14;4.40;1.00
9885;DHT22;4981;50.966;4.842;2024-01-06T13:46:41;4.40;1.00
9885;DHT22;4981;50.966;4.842;2024-01-06T13:49:10;4.20;1.00
9885;DHT22;4981;50.966;4.842;2024-01-06T13:51:38;4.40;1.00
9885;DHT22;4981;50.966;4.842;2024-01-06T13:54:05;4.40;1.00
9885;DHT22;4981;50.966;4.842;2024-01-06T13:56:33;4.40;1.00
9885;DHT22;4981;50.966;4.842;2024-01-06T13:59:00;4.40;1.00
9885;DHT22;4981;50.966;4.842;2024-01-06T14:01:28;4.40;1.00
9885;DHT22;4981;50.966;4.842;2024-01-06T14:03:55;4.40;1.00
9885;DHT22;4981;50.966;4.842;2024-01-06T14:06:24;4.40;1.00
9885;DHT22;4981;50.966;4.842;2024-01-06T14:08:55;4.40;1.00
9885;DHT22;4981;50.966;4.842;2024-01-06T14:11:22;4.50;1.00
9885;DHT22;4981;50.966;4.842;2024-01-06T14:13:49;4.40;1.00
9885;DHT22;4981;50.966;4.842;2024-01-06T14:16:17;4.40;1.00
9885;DHT22;4981;50.966;4.842;2024-01-06T14:18:46;4.40;1.00
9885;DHT22;4981;50.966;4.842;2024-01-06T14:21:13;4.30;1.00
9885;DHT22;4981;50.966;4.842;2024-01-06T14:23:41;4.50;1.00
9885;DHT22;4981;50.966;4.842;2024-01-06T14:26:08;4.50;1.00
9885;DHT22;4981;50.966;4.842;2024-01-06T14:28:35;4.80;1.00
9885;DHT22;4981;50.966;4.842;2024-01-06T14:31:02;4.40;1.00
9885;DHT22;4981;50.966;4.842;2024-01-06T14:33:29;4.50;1.00
9885;DHT22;4981;50.966;4.842;2024-01-06T14:35:58;4.40;1.00
9885;DHT22;4981;50.966;4.842;2024-01-06T14:38:25;4.40;1.00
9885;DHT22;4981;50.966;4.842;2024-01-06T14:40:52;4.40;1.00
9885;DHT22;4981;50.966;4.842;2024-01-06T14:43:19;4.40;1.00
9885;DHT22;4981;50.966;4.842;2024-01-06T14:45:47;4.40;1.00
9885;DHT22;4981;50.966;4.842;2024-01-06T14:48:14;4.40;1.00
9885;DHT22;4981;50.966;4.842;2024-01-06T14:50:41;4.30;1.00
9885;DHT22;4981;50.966;4.842;2024-01-06T14:53:09;4.40;1.00
9885;DHT22;4981;50.966;4.842;2024-01-06T14:55:36;4.30;1.00
9885;DHT22;4981;50.966;4.842;2024-01-06T14:58:04;4.30;1.00
9885;DHT22;4981;50.966;4.842;2024-01-06T15:00:31;4.40;1.00
9885;DHT22;4981;50.966;4.842;2024-01-06T15:02:58;4.40;1.00
9885;DHT22;4981;50.966;4.842;2024-01-06T15:05:25;4.50;1.00
9885;DHT22;4981;50.966;4.842;2024-01-06T15:07:54;4.40;1.00
9885;DHT22;4981;50.966;4.842;2024-01-06T15:10:23;4.30;1.00
9885;DHT22;4981;50.966;4.842;2024-01-06T15:12:50;4.30;1.00
9885;DHT22;4981;50.966;4.842;2024-01-06T15:15:17;4.30;1.00
9885;DHT22;4981;50.966;4.842;2024-01-06T15:17:44;4.50;1.00
9885;DHT22;4981;50.966;4.842;2024-01-06T15:20:12;4.30;1.00
9885;DHT22;4981;50.966;4.842;2024-01-06T15:22:39;4.30;1.00
9885;DHT22;4981;50.966;4.842;2024-01-06T15:25:06;4.30;1.00
9885;DHT22;4981;50.966;4.842;2024-01-06T15:27:37;4.30;1.00
9885;DHT22;4981;50.966;4.842;2024-01-06T15:30:05;4.50;1.00
9885;DHT22;4981;50.966;4.842;2024-01-06T15:32:34;4.20;1.00
9885;DHT22;4981;50.966;4.842;2024-01-06T15:35:01;4.30;1.00
9885;DHT22;4981;50.966;4.842;2024-01-06T15:37:29;4.30;1.00
9885;DHT22;4981;50.966;4.842;2024-01-06T15:39:59;4.30;1.00
9885;DHT22;4981;50.966;4.842;2024-01-06T15:42:26;4.30;1.00
9885;DHT22;4981;50.966;4.842;2024-01-06T15:44:55;4.30;1.00
9885;DHT22;4981;50.966;4.842;2024-01-06T15:47:22;4.30;1.00
9885;DHT22;4981;50.966;4.842;2024-01-06T15:49:49;4.30;1.00
9885;DHT22;4981;50.966;4.842;2024-01-06T15:52:16;4.30;1.00
9885;DHT22;4981;50.966;4.842;2024-01-06T15:54:47;4.30;1.00
9885;DHT22;4981;50.966;4.842;2024-01-06T15:57:15;4.30;1.00
9885;DHT22;4981;50.966;4.842;2024-01-06T15:59:41;4.40;1.00
9885;DHT22;4981;50.966;4.842;2024-01-06T16:02:10;4.30;1.00
9885;DHT22;4981;50.966;4.842;2024-01-06T16:04:37;4.30;1.00
9885;DHT22;4981;50.966;4.842;2024-01-06T16:07:04;4.30;1.00
9885;DHT22;4981;50.966;4.842;2024-01-06T16:09:31;4.30;1.00
9885;DHT22;4981;50.966;4.842;2024-01-06T16:11:58;4.30;1.00
9885;DHT22;4981;50.966;4.842;2024-01-06T16:14:25;4.30;1.00
9885;DHT22;4981;50.966;4.842;2024-01-06T16:16:53;4.30;1.00
9885;DHT22;4981;50.966;4.842;2024-01-06T16:19:21;4.30;1.00
9885;DHT22;4981;50.966;4.842;2024-01-06T16:21:48;4.30;1.00
9885;DHT22;4981;50.966;4.842;2024-01-06T16:24:16;5.70;1.00
9885;DHT22;4981;50.966;4.842;2024-01-06T16:26:44;4.80;1.00
9885;DHT22;4981;50.966;4.842;2024-01-06T16:29:11;4.70;1.00
9885;DHT22;4981;50.966;4.842;2024-01-06T16:31:38;4.50;1.00
9885;DHT22;4981;50.966;4.842;2024-01-06T16:34:05;4.40;1.00
9885;DHT22;4981;50.966;4.842;2024-01-06T16:36:34;4.40;1.00
9885;DHT22;4981;50.966;4.842;2024-01-06T16:39:00;5.00;1.00
9885;DHT22;4981;50.966;4.842;2024-01-06T16:41:27;5.20;1.00
9885;DHT22;4981;50.966;4.842;2024-01-06T16:43:55;4.60;1.00